sensor_id;sensor_type;location;lat;lon;timestamp;P1;durP1;ratioP1;P2;durP2;ratioP2
18610;SDS011;9435;52.122;5.502;2022-12-24T00:00:33;35.72;;;4.45;;
18610;SDS011;9435;52.122;5.502;2022-12-24T00:03:01;46.17;;;4.47;;
18610;SDS011;9435;52.122;5.502;2022-12-24T00:05:28;43.13;;;4.40;;
18610;SDS011;9435;52.122;5.502;2022-12-24T00:07:55;38.25;;;4.53;;
18610;SDS011;9435;52.122;5.502;2022-12-24T00:10:23;28.55;;;4.50;;
18610;SDS011;9435;52.122;5.502;2022-12-24T00:12:50;32.38;;;4.10;;
18610;SDS011;9435;52.122;5.502;2022-12-24T00:15:18;38.25;;;5.20;;
18610;SDS011;9435;52.122;5.502;2022-12-24T00:17:45;44.05;;;4.50;;
18610;SDS011;9435;52.122;5.502;2022-12-24T00:20:12;49.28;;;6.50;;
18610;SDS011;9435;52.122;5.502;2022-12-24T00:22:39;39.83;;;4.68;;
18610;SDS011;9435;52.122;5.502;2022-12-24T00:25:06;43.10;;;5.10;;
18610;SDS011;9435;52.122;5.502;2022-12-24T00:27:35;41.88;;;4.82;;
18610;SDS011;9435;52.122;5.502;2022-12-24T00:30:02;40.53;;;4.90;;
18610;SDS011;9435;52.122;5.502;2022-12-24T00:32:30;42.40;;;4.88;;
18610;SDS011;9435;52.122;5.502;2022-12-24T00:34:57;41.00;;;4.80;;
18610;SDS011;9435;52.122;5.502;2022-12-24T00:37:24;39.42;;;4.55;;
18610;SDS011;9435;52.122;5.502;2022-12-24T00:39:51;42.10;;;5.00;;
18610;SDS011;9435;52.122;5.502;2022-12-24T00:42:18;37.13;;;4.30;;
18610;SDS011;9435;52.122;5.502;2022-12-24T00:44:46;41.95;;;4.63;;
18610;SDS011;9435;52.122;5.502;2022-12-24T00:47:13;38.78;;;5.65;;
18610;SDS011;9435;52.122;5.502;2022-12-24T00:49:40;43.40;;;4.55;;
18610;SDS011;9435;52.122;5.502;2022-12-24T00:52:08;39.25;;;4.88;;
18610;SDS011;9435;52.122;5.502;2022-12-24T00:54:35;37.45;;;4.50;;
18610;SDS011;9435;52.122;5.502;2022-12-24T00:57:02;39.50;;;5.05;;
18610;SDS011;9435;52.122;5.502;2022-12-24T00:59:29;35.47;;;4.65;;
18610;SDS011;9435;52.122;5.502;2022-12-24T01:01:57;33.45;;;4.28;;
18610;SDS011;9435;52.122;5.502;2022-12-24T01:04:24;33.53;;;4.15;;
18610;SDS011;9435;52.122;5.502;2022-12-24T01:07:09;40.65;;;4.93;;
18610;SDS011;9435;52.122;5.502;2022-12-24T01:09:36;44.47;;;4.72;;
18610;SDS011;9435;52.122;5.502;2022-12-24T01:12:03;33.58;;;4.65;;
18610;SDS011;9435;52.122;5.502;2022-12-24T01:14:30;40.17;;;5.10;;
18610;SDS011;9435;52.122;5.502;2022-12-24T01:16:59;35.67;;;4.57;;
18610;SDS011;9435;52.122;5.502;2022-12-24T01:19:26;43.13;;;5.32;;
18610;SDS011;9435;52.122;5.502;2022-12-24T01:21:53;50.50;;;5.75;;
18610;SDS011;9435;52.122;5.502;2022-12-24T01:24:20;45.63;;;5.63;;
18610;SDS011;9435;52.122;5.502;2022-12-24T01:26:47;42.13;;;4.82;;
18610;SDS011;9435;52.122;5.502;2022-12-24T01:29:14;46.33;;;5.20;;
18610;SDS011;9435;52.122;5.502;2022-12-24T01:31:41;41.78;;;5.20;;
18610;SDS011;9435;52.122;5.502;2022-12-24T01:34:10;47.10;;;5.45;;
18610;SDS011;9435;52.122;5.502;2022-12-24T01:36:37;44.05;;;5.15;;
18610;SDS011;9435;52.122;5.502;2022-12-24T01:39:04;54.22;;;5.68;;
18610;SDS011;9435;52.122;5.502;2022-12-24T01:41:31;50.97;;;5.30;;
18610;SDS011;9435;52.122;5.502;2022-12-24T01:44:20;40.83;;;4.60;;
18610;SDS011;9435;52.122;5.502;2022-12-24T01:46:51;47.08;;;5.43;;
18610;SDS011;9435;52.122;5.502;2022-12-24T01:49:22;50.22;;;5.05;;
18610;SDS011;9435;52.122;5.502;2022-12-24T01:51:50;50.28;;;5.28;;
18610;SDS011;9435;52.122;5.502;2022-12-24T01:54:22;39.17;;;4.57;;
18610;SDS011;9435;52.122;5.502;2022-12-24T01:56:55;46.80;;;4.50;;
18610;SDS011;9435;52.122;5.502;2022-12-24T01:59:25;46.65;;;5.22;;
18610;SDS011;9435;52.122;5.502;2022-12-24T02:01:54;51.05;;;4.90;;
18610;SDS011;9435;52.122;5.502;2022-12-24T02:04:25;37.97;;;4.63;;
18610;SDS011;9435;52.122;5.502;2022-12-24T02:06:58;42.85;;;4.88;;
18610;SDS011;9435;52.122;5.502;2022-12-24T02:09:26;41.15;;;4.70;;
18610;SDS011;9435;52.122;5.502;2022-12-24T02:11:54;42.13;;;4.90;;
18610;SDS011;9435;52.122;5.502;2022-12-24T02:14:22;43.53;;;5.07;;
18610;SDS011;9435;52.122;5.502;2022-12-24T02:16:53;46.30;;;5.18;;
18610;SDS011;9435;52.122;5.502;2022-12-24T02:19:51;46.33;;;4.97;;
18610;SDS011;9435;52.122;5.502;2022-12-24T02:22:55;37.92;;;4.68;;
18610;SDS011;9435;52.122;5.502;2022-12-24T02:26:05;47.00;;;4.80;;
18610;SDS011;9435;52.122;5.502;2022-12-24T02:28:46;45.80;;;5.20;;
18610;SDS011;9435;52.122;5.502;2022-12-24T02:31:30;42.33;;;4.88;;
18610;SDS011;9435;52.122;5.502;2022-12-24T02:34:03;44.72;;;5.20;;
18610;SDS011;9435;52.122;5.502;2022-12-24T02:36:35;44.83;;;4.97;;
18610;SDS011;9435;52.122;5.502;2022-12-24T02:39:08;53.53;;;5.25;;
18610;SDS011;9435;52.122;5.502;2022-12-24T02:41:39;48.95;;;5.40;;
18610;SDS011;9435;52.122;5.502;2022-12-24T02:44:27;54.38;;;4.88;;
18610;SDS011;9435;52.122;5.502;2022-12-24T02:46:57;41.47;;;4.65;;
18610;SDS011;9435;52.122;5.502;2022-12-24T02:49:26;43.70;;;5.03;;
18610;SDS011;9435;52.122;5.502;2022-12-24T02:51:53;41.97;;;4.95;;
18610;SDS011;9435;52.122;5.502;2022-12-24T02:54:20;51.22;;;4.90;;
18610;SDS011;9435;52.122;5.502;2022-12-24T02:56:52;42.38;;;4.75;;
18610;SDS011;9435;52.122;5.502;2022-12-24T02:59:46;39.95;;;4.40;;
18610;SDS011;9435;52.122;5.502;2022-12-24T03:02:25;44.17;;;4.85;;
18610;SDS011;9435;52.122;5.502;2022-12-24T03:05:01;43.88;;;4.65;;
18610;SDS011;9435;52.122;5.502;2022-12-24T03:07:40;36.28;;;4.65;;
18610;SDS011;9435;52.122;5.502;2022-12-24T03:10:15;45.58;;;4.68;;
18610;SDS011;9435;52.122;5.502;2022-12-24T03:12:47;42.80;;;5.03;;
18610;SDS011;9435;52.122;5.502;2022-12-24T03:15:18;42.33;;;3.78;;
18610;SDS011;9435;52.122;5.502;2022-12-24T03:17:49;44.60;;;4.38;;
18610;SDS011;9435;52.122;5.502;2022-12-24T03:20:19;43.10;;;4.68;;
18610;SDS011;9435;52.122;5.502;2022-12-24T03:22:48;40.90;;;4.28;;
18610;SDS011;9435;52.122;5.502;2022-12-24T03:25:16;43.28;;;4.28;;
18610;SDS011;9435;52.122;5.502;2022-12-24T03:27:43;53.20;;;4.53;;
18610;SDS011;9435;52.122;5.502;2022-12-24T03:30:12;43.28;;;4.22;;
18610;SDS011;9435;52.122;5.502;2022-12-24T03:32:42;45.00;;;4.50;;
18610;SDS011;9435;52.122;5.502;2022-12-24T03:35:10;38.15;;;4.78;;
18610;SDS011;9435;52.122;5.502;2022-12-24T03:37:38;46.40;;;5.07;;
18610;SDS011;9435;52.122;5.502;2022-12-24T03:40:06;46.80;;;5.15;;
18610;SDS011;9435;52.122;5.502;2022-12-24T03:42:34;40.20;;;4.50;;
18610;SDS011;9435;52.122;5.502;2022-12-24T03:45:01;45.45;;;4.57;;
18610;SDS011;9435;52.122;5.502;2022-12-24T03:47:29;47.25;;;5.40;;
18610;SDS011;9435;52.122;5.502;2022-12-24T03:49:56;46.80;;;5.10;;
18610;SDS011;9435;52.122;5.502;2022-12-24T03:52:25;61.03;;;5.20;;
18610;SDS011;9435;52.122;5.502;2022-12-24T03:54:52;57.65;;;6.03;;
18610;SDS011;9435;52.122;5.502;2022-12-24T03:57:19;54.45;;;5.00;;
18610;SDS011;9435;52.122;5.502;2022-12-24T03:59:46;48.63;;;5.47;;
18610;SDS011;9435;52.122;5.502;2022-12-24T04:02:13;56.00;;;5.85;;
18610;SDS011;9435;52.122;5.502;2022-12-24T04:04:40;61.45;;;5.43;;
18610;SDS011;9435;52.122;5.502;2022-12-24T04:07:07;61.70;;;6.35;;
18610;SDS011;9435;52.122;5.502;2022-12-24T04:09:36;56.50;;;5.55;;
18610;SDS011;9435;52.122;5.502;2022-12-24T04:12:03;54.92;;;5.32;;
18610;SDS011;9435;52.122;5.502;2022-12-24T04:14:30;58.13;;;6.35;;
18610;SDS011;9435;52.122;5.502;2022-12-24T04:16:57;68.82;;;6.30;;
18610;SDS011;9435;52.122;5.502;2022-12-24T04:19:24;59.10;;;5.70;;
18610;SDS011;9435;52.122;5.502;2022-12-24T04:21:52;59.20;;;5.82;;
18610;SDS011;9435;52.122;5.502;2022-12-24T04:24:19;61.08;;;6.20;;
18610;SDS011;9435;52.122;5.502;2022-12-24T04:26:47;60.45;;;6.22;;
18610;SDS011;9435;52.122;5.502;2022-12-24T04:29:14;59.50;;;6.38;;
18610;SDS011;9435;52.122;5.502;2022-12-24T04:31:41;50.78;;;5.90;;
18610;SDS011;9435;52.122;5.502;2022-12-24T04:34:08;64.70;;;6.55;;
18610;SDS011;9435;52.122;5.502;2022-12-24T04:36:35;57.38;;;6.60;;
18610;SDS011;9435;52.122;5.502;2022-12-24T04:39:03;60.95;;;7.00;;
18610;SDS011;9435;52.122;5.502;2022-12-24T04:41:30;51.88;;;6.45;;
18610;SDS011;9435;52.122;5.502;2022-12-24T04:43:59;61.35;;;6.25;;
18610;SDS011;9435;52.122;5.502;2022-12-24T04:46:27;55.03;;;6.53;;
18610;SDS011;9435;52.122;5.502;2022-12-24T04:48:55;50.85;;;6.57;;
18610;SDS011;9435;52.122;5.502;2022-12-24T04:51:23;59.45;;;6.82;;
18610;SDS011;9435;52.122;5.502;2022-12-24T04:53:51;51.70;;;6.57;;
18610;SDS011;9435;52.122;5.502;2022-12-24T04:56:19;54.78;;;6.97;;
18610;SDS011;9435;52.122;5.502;2022-12-24T04:58:48;57.80;;;7.32;;
18610;SDS011;9435;52.122;5.502;2022-12-24T05:01:19;60.50;;;7.30;;
18610;SDS011;9435;52.122;5.502;2022-12-24T05:03:47;49.08;;;6.60;;
18610;SDS011;9435;52.122;5.502;2022-12-24T05:06:16;57.45;;;7.03;;
18610;SDS011;9435;52.122;5.502;2022-12-24T05:08:45;62.10;;;6.53;;
18610;SDS011;9435;52.122;5.502;2022-12-24T05:11:13;59.50;;;6.50;;
18610;SDS011;9435;52.122;5.502;2022-12-24T05:13:40;56.38;;;6.90;;
18610;SDS011;9435;52.122;5.502;2022-12-24T05:16:08;53.85;;;7.00;;
18610;SDS011;9435;52.122;5.502;2022-12-24T05:18:37;54.10;;;5.93;;
18610;SDS011;9435;52.122;5.502;2022-12-24T05:21:06;41.90;;;5.70;;
18610;SDS011;9435;52.122;5.502;2022-12-24T05:23:35;49.35;;;5.80;;
18610;SDS011;9435;52.122;5.502;2022-12-24T05:26:23;50.28;;;6.20;;
18610;SDS011;9435;52.122;5.502;2022-12-24T05:28:54;51.60;;;5.57;;
18610;SDS011;9435;52.122;5.502;2022-12-24T05:31:23;49.58;;;5.20;;
18610;SDS011;9435;52.122;5.502;2022-12-24T05:33:53;55.83;;;6.10;;
18610;SDS011;9435;52.122;5.502;2022-12-24T05:36:21;50.28;;;5.55;;
18610;SDS011;9435;52.122;5.502;2022-12-24T05:38:49;47.42;;;5.70;;
18610;SDS011;9435;52.122;5.502;2022-12-24T05:41:16;50.35;;;5.93;;
18610;SDS011;9435;52.122;5.502;2022-12-24T05:43:44;52.63;;;6.47;;
18610;SDS011;9435;52.122;5.502;2022-12-24T05:46:11;53.30;;;5.93;;
18610;SDS011;9435;52.122;5.502;2022-12-24T05:48:40;60.72;;;6.78;;
18610;SDS011;9435;52.122;5.502;2022-12-24T05:51:09;51.53;;;6.07;;
18610;SDS011;9435;52.122;5.502;2022-12-24T05:53:38;58.45;;;6.22;;
18610;SDS011;9435;52.122;5.502;2022-12-24T05:56:06;52.65;;;6.97;;
18610;SDS011;9435;52.122;5.502;2022-12-24T05:58:34;70.72;;;7.18;;
18610;SDS011;9435;52.122;5.502;2022-12-24T06:01:02;64.88;;;7.65;;
18610;SDS011;9435;52.122;5.502;2022-12-24T06:03:30;72.40;;;7.68;;
18610;SDS011;9435;52.122;5.502;2022-12-24T06:05:58;61.47;;;7.25;;
18610;SDS011;9435;52.122;5.502;2022-12-24T06:08:28;51.50;;;6.60;;
18610;SDS011;9435;52.122;5.502;2022-12-24T06:10:56;59.53;;;7.53;;
18610;SDS011;9435;52.122;5.502;2022-12-24T06:13:25;58.72;;;7.80;;
18610;SDS011;9435;52.122;5.502;2022-12-24T06:15:53;62.00;;;7.60;;
18610;SDS011;9435;52.122;5.502;2022-12-24T06:18:20;60.53;;;7.45;;
18610;SDS011;9435;52.122;5.502;2022-12-24T06:20:49;75.90;;;8.15;;
18610;SDS011;9435;52.122;5.502;2022-12-24T06:23:16;63.15;;;6.78;;
18610;SDS011;9435;52.122;5.502;2022-12-24T06:25:45;59.22;;;7.50;;
18610;SDS011;9435;52.122;5.502;2022-12-24T06:28:12;67.22;;;7.40;;
18610;SDS011;9435;52.122;5.502;2022-12-24T06:30:40;74.65;;;6.78;;
18610;SDS011;9435;52.122;5.502;2022-12-24T06:33:07;72.85;;;7.85;;
18610;SDS011;9435;52.122;5.502;2022-12-24T06:35:34;70.13;;;7.40;;
18610;SDS011;9435;52.122;5.502;2022-12-24T06:38:01;79.95;;;8.43;;
18610;SDS011;9435;52.122;5.502;2022-12-24T06:40:28;63.13;;;7.90;;
18610;SDS011;9435;52.122;5.502;2022-12-24T06:42:57;65.75;;;7.53;;
18610;SDS011;9435;52.122;5.502;2022-12-24T06:45:24;71.00;;;8.70;;
18610;SDS011;9435;52.122;5.502;2022-12-24T06:47:51;73.68;;;7.43;;
18610;SDS011;9435;52.122;5.502;2022-12-24T06:50:18;84.20;;;7.97;;
18610;SDS011;9435;52.122;5.502;2022-12-24T06:52:45;90.10;;;8.63;;
18610;SDS011;9435;52.122;5.502;2022-12-24T06:55:12;89.82;;;8.25;;
18610;SDS011;9435;52.122;5.502;2022-12-24T06:57:40;91.13;;;9.25;;
18610;SDS011;9435;52.122;5.502;2022-12-24T07:00:09;91.75;;;8.85;;
18610;SDS011;9435;52.122;5.502;2022-12-24T07:02:38;83.80;;;9.25;;
18610;SDS011;9435;52.122;5.502;2022-12-24T07:05:05;72.85;;;8.52;;
18610;SDS011;9435;52.122;5.502;2022-12-24T07:07:34;70.70;;;8.23;;
18610;SDS011;9435;52.122;5.502;2022-12-24T07:10:03;83.95;;;9.02;;
18610;SDS011;9435;52.122;5.502;2022-12-24T07:12:31;84.65;;;8.88;;
18610;SDS011;9435;52.122;5.502;2022-12-24T07:14:58;82.63;;;8.35;;
18610;SDS011;9435;52.122;5.502;2022-12-24T07:17:26;66.03;;;7.82;;
18610;SDS011;9435;52.122;5.502;2022-12-24T07:19:54;72.72;;;7.82;;
18610;SDS011;9435;52.122;5.502;2022-12-24T07:22:21;80.85;;;8.48;;
18610;SDS011;9435;52.122;5.502;2022-12-24T07:24:48;68.90;;;8.13;;
18610;SDS011;9435;52.122;5.502;2022-12-24T07:27:15;66.43;;;7.88;;
18610;SDS011;9435;52.122;5.502;2022-12-24T07:29:42;80.55;;;8.32;;
18610;SDS011;9435;52.122;5.502;2022-12-24T07:32:09;66.88;;;7.78;;
18610;SDS011;9435;52.122;5.502;2022-12-24T07:34:38;64.22;;;7.65;;
18610;SDS011;9435;52.122;5.502;2022-12-24T07:37:05;70.07;;;7.10;;
18610;SDS011;9435;52.122;5.502;2022-12-24T07:39:33;77.35;;;7.28;;
18610;SDS011;9435;52.122;5.502;2022-12-24T07:42:00;63.08;;;7.32;;
18610;SDS011;9435;52.122;5.502;2022-12-24T07:44:29;66.95;;;6.95;;
18610;SDS011;9435;52.122;5.502;2022-12-24T07:46:56;78.90;;;7.43;;
18610;SDS011;9435;52.122;5.502;2022-12-24T07:49:23;74.70;;;7.97;;
18610;SDS011;9435;52.122;5.502;2022-12-24T07:51:57;73.60;;;7.32;;
18610;SDS011;9435;52.122;5.502;2022-12-24T07:54:25;78.35;;;7.63;;
18610;SDS011;9435;52.122;5.502;2022-12-24T07:56:52;59.03;;;7.53;;
18610;SDS011;9435;52.122;5.502;2022-12-24T07:59:20;64.22;;;6.93;;
18610;SDS011;9435;52.122;5.502;2022-12-24T08:01:47;64.50;;;6.95;;
18610;SDS011;9435;52.122;5.502;2022-12-24T08:04:15;62.78;;;7.47;;
18610;SDS011;9435;52.122;5.502;2022-12-24T08:06:42;63.92;;;7.38;;
18610;SDS011;9435;52.122;5.502;2022-12-24T08:09:10;62.15;;;6.95;;
18610;SDS011;9435;52.122;5.502;2022-12-24T08:11:39;61.78;;;7.10;;
18610;SDS011;9435;52.122;5.502;2022-12-24T08:14:06;53.05;;;6.40;;
18610;SDS011;9435;52.122;5.502;2022-12-24T08:16:33;63.28;;;6.22;;
18610;SDS011;9435;52.122;5.502;2022-12-24T08:19:00;63.80;;;5.97;;
18610;SDS011;9435;52.122;5.502;2022-12-24T08:21:27;65.40;;;6.50;;
18610;SDS011;9435;52.122;5.502;2022-12-24T08:23:54;54.42;;;5.93;;
18610;SDS011;9435;52.122;5.502;2022-12-24T08:26:22;62.65;;;6.43;;
18610;SDS011;9435;52.122;5.502;2022-12-24T08:28:50;56.92;;;6.25;;
18610;SDS011;9435;52.122;5.502;2022-12-24T08:31:17;53.67;;;5.97;;
18610;SDS011;9435;52.122;5.502;2022-12-24T08:33:44;52.30;;;6.00;;
18610;SDS011;9435;52.122;5.502;2022-12-24T08:36:11;51.28;;;6.35;;
18610;SDS011;9435;52.122;5.502;2022-12-24T08:38:38;61.17;;;7.20;;
18610;SDS011;9435;52.122;5.502;2022-12-24T08:41:05;52.55;;;6.55;;
18610;SDS011;9435;52.122;5.502;2022-12-24T08:43:33;64.20;;;6.53;;
18610;SDS011;9435;52.122;5.502;2022-12-24T08:46:01;64.05;;;6.22;;
18610;SDS011;9435;52.122;5.502;2022-12-24T08:48:29;62.50;;;6.85;;
18610;SDS011;9435;52.122;5.502;2022-12-24T08:50:56;69.70;;;6.93;;
18610;SDS011;9435;52.122;5.502;2022-12-24T08:53:24;68.32;;;7.55;;
18610;SDS011;9435;52.122;5.502;2022-12-24T08:55:51;62.13;;;6.82;;
18610;SDS011;9435;52.122;5.502;2022-12-24T08:58:18;60.83;;;6.63;;
18610;SDS011;9435;52.122;5.502;2022-12-24T09:00:46;65.47;;;7.13;;
18610;SDS011;9435;52.122;5.502;2022-12-24T09:03:13;72.35;;;7.78;;
18610;SDS011;9435;52.122;5.502;2022-12-24T09:05:41;49.85;;;6.38;;
18610;SDS011;9435;52.122;5.502;2022-12-24T09:08:08;62.75;;;7.78;;
18610;SDS011;9435;52.122;5.502;2022-12-24T09:10:35;63.10;;;7.32;;
18610;SDS011;9435;52.122;5.502;2022-12-24T09:13:02;57.80;;;7.45;;
18610;SDS011;9435;52.122;5.502;2022-12-24T09:15:29;53.53;;;7.43;;
18610;SDS011;9435;52.122;5.502;2022-12-24T09:17:58;60.47;;;8.35;;
18610;SDS011;9435;52.122;5.502;2022-12-24T09:20:26;43.35;;;6.38;;
18610;SDS011;9435;52.122;5.502;2022-12-24T09:22:53;43.10;;;6.97;;
18610;SDS011;9435;52.122;5.502;2022-12-24T09:25:20;61.08;;;8.50;;
18610;SDS011;9435;52.122;5.502;2022-12-24T09:27:47;62.53;;;7.80;;
18610;SDS011;9435;52.122;5.502;2022-12-24T09:30:14;50.58;;;8.30;;
18610;SDS011;9435;52.122;5.502;2022-12-24T09:32:41;58.55;;;8.57;;
18610;SDS011;9435;52.122;5.502;2022-12-24T09:35:10;52.95;;;8.52;;
18610;SDS011;9435;52.122;5.502;2022-12-24T09:37:37;55.35;;;8.23;;
18610;SDS011;9435;52.122;5.502;2022-12-24T09:40:04;57.03;;;7.80;;
18610;SDS011;9435;52.122;5.502;2022-12-24T09:42:36;53.35;;;7.10;;
18610;SDS011;9435;52.122;5.502;2022-12-24T09:45:13;55.35;;;7.78;;
18610;SDS011;9435;52.122;5.502;2022-12-24T09:47:45;56.63;;;7.82;;
18610;SDS011;9435;52.122;5.502;2022-12-24T09:50:23;45.17;;;7.63;;
18610;SDS011;9435;52.122;5.502;2022-12-24T09:52:55;55.55;;;7.45;;
18610;SDS011;9435;52.122;5.502;2022-12-24T09:55:27;58.92;;;7.47;;
18610;SDS011;9435;52.122;5.502;2022-12-24T09:57:59;50.15;;;6.65;;
18610;SDS011;9435;52.122;5.502;2022-12-24T10:00:30;53.15;;;6.65;;
18610;SDS011;9435;52.122;5.502;2022-12-24T10:03:01;45.92;;;6.45;;
18610;SDS011;9435;52.122;5.502;2022-12-24T10:05:35;54.92;;;7.07;;
18610;SDS011;9435;52.122;5.502;2022-12-24T10:08:09;51.88;;;5.78;;
18610;SDS011;9435;52.122;5.502;2022-12-24T10:10:47;50.40;;;6.50;;
18610;SDS011;9435;52.122;5.502;2022-12-24T10:13:19;51.80;;;6.60;;
18610;SDS011;9435;52.122;5.502;2022-12-24T10:15:57;47.55;;;6.68;;
18610;SDS011;9435;52.122;5.502;2022-12-24T10:18:30;46.90;;;5.93;;
18610;SDS011;9435;52.122;5.502;2022-12-24T10:21:09;53.20;;;6.88;;
18610;SDS011;9435;52.122;5.502;2022-12-24T10:23:39;52.63;;;5.90;;
18610;SDS011;9435;52.122;5.502;2022-12-24T10:26:13;54.78;;;6.47;;
18610;SDS011;9435;52.122;5.502;2022-12-24T10:28:44;51.65;;;6.55;;
18610;SDS011;9435;52.122;5.502;2022-12-24T10:31:16;51.42;;;6.05;;
18610;SDS011;9435;52.122;5.502;2022-12-24T10:33:47;43.50;;;5.85;;
18610;SDS011;9435;52.122;5.502;2022-12-24T10:36:19;43.67;;;6.05;;
18610;SDS011;9435;52.122;5.502;2022-12-24T10:38:50;43.95;;;5.60;;
18610;SDS011;9435;52.122;5.502;2022-12-24T10:41:17;47.22;;;6.43;;
18610;SDS011;9435;52.122;5.502;2022-12-24T10:43:44;46.00;;;6.07;;
18610;SDS011;9435;52.122;5.502;2022-12-24T10:46:15;51.00;;;6.88;;
18610;SDS011;9435;52.122;5.502;2022-12-24T10:48:47;47.75;;;6.60;;
18610;SDS011;9435;52.122;5.502;2022-12-24T10:51:23;41.97;;;5.97;;
18610;SDS011;9435;52.122;5.502;2022-12-24T10:53:58;52.70;;;6.22;;
18610;SDS011;9435;52.122;5.502;2022-12-24T10:56:31;46.50;;;5.85;;
18610;SDS011;9435;52.122;5.502;2022-12-24T10:59:05;45.63;;;5.68;;
18610;SDS011;9435;52.122;5.502;2022-12-24T11:01:47;43.83;;;5.90;;
18610;SDS011;9435;52.122;5.502;2022-12-24T11:04:16;39.22;;;6.28;;
18610;SDS011;9435;52.122;5.502;2022-12-24T11:06:56;50.38;;;6.95;;
18610;SDS011;9435;52.122;5.502;2022-12-24T11:09:25;40.65;;;6.90;;
18610;SDS011;9435;52.122;5.502;2022-12-24T11:11:54;39.00;;;5.60;;
18610;SDS011;9435;52.122;5.502;2022-12-24T11:14:22;46.38;;;5.88;;
18610;SDS011;9435;52.122;5.502;2022-12-24T11:16:51;46.05;;;5.70;;
18610;SDS011;9435;52.122;5.502;2022-12-24T11:19:23;44.33;;;5.85;;
18610;SDS011;9435;52.122;5.502;2022-12-24T11:22:01;43.33;;;5.97;;
18610;SDS011;9435;52.122;5.502;2022-12-24T11:24:31;47.65;;;5.72;;
18610;SDS011;9435;52.122;5.502;2022-12-24T11:29:48;41.13;;;6.03;;
18610;SDS011;9435;52.122;5.502;2022-12-24T11:32:16;37.88;;;5.43;;
18610;SDS011;9435;52.122;5.502;2022-12-24T11:34:46;43.67;;;5.35;;
18610;SDS011;9435;52.122;5.502;2022-12-24T11:37:16;44.90;;;5.50;;
18610;SDS011;9435;52.122;5.502;2022-12-24T11:39:47;38.33;;;5.00;;
18610;SDS011;9435;52.122;5.502;2022-12-24T11:42:24;33.38;;;4.60;;
18610;SDS011;9435;52.122;5.502;2022-12-24T11:44:55;28.77;;;4.30;;
18610;SDS011;9435;52.122;5.502;2022-12-24T11:47:33;33.25;;;4.55;;
18610;SDS011;9435;52.122;5.502;2022-12-24T11:50:22;31.48;;;4.25;;
18610;SDS011;9435;52.122;5.502;2022-12-24T11:52:55;30.73;;;4.00;;
18610;SDS011;9435;52.122;5.502;2022-12-24T11:55:34;31.60;;;4.38;;
18610;SDS011;9435;52.122;5.502;2022-12-24T11:58:11;29.83;;;4.30;;
18610;SDS011;9435;52.122;5.502;2022-12-24T12:00:46;33.20;;;4.68;;
18610;SDS011;9435;52.122;5.502;2022-12-24T12:03:22;32.38;;;4.00;;
18610;SDS011;9435;52.122;5.502;2022-12-24T12:05:55;24.45;;;3.60;;
18610;SDS011;9435;52.122;5.502;2022-12-24T12:08:26;29.75;;;4.85;;
18610;SDS011;9435;52.122;5.502;2022-12-24T12:10:55;30.88;;;4.28;;
18610;SDS011;9435;52.122;5.502;2022-12-24T12:13:26;35.22;;;4.15;;
18610;SDS011;9435;52.122;5.502;2022-12-24T12:16:00;32.05;;;4.90;;
18610;SDS011;9435;52.122;5.502;2022-12-24T12:18:40;25.23;;;3.63;;
18610;SDS011;9435;52.122;5.502;2022-12-24T12:21:13;29.92;;;3.53;;
18610;SDS011;9435;52.122;5.502;2022-12-24T12:23:46;31.50;;;3.90;;
18610;SDS011;9435;52.122;5.502;2022-12-24T12:26:17;25.45;;;4.20;;
18610;SDS011;9435;52.122;5.502;2022-12-24T12:28:50;33.13;;;4.50;;
18610;SDS011;9435;52.122;5.502;2022-12-24T12:31:21;25.70;;;3.88;;
18610;SDS011;9435;52.122;5.502;2022-12-24T12:33:54;33.17;;;4.57;;
18610;SDS011;9435;52.122;5.502;2022-12-24T12:36:25;27.65;;;4.72;;
18610;SDS011;9435;52.122;5.502;2022-12-24T12:38:58;32.97;;;5.18;;
18610;SDS011;9435;52.122;5.502;2022-12-24T12:41:31;31.88;;;4.72;;
18610;SDS011;9435;52.122;5.502;2022-12-24T12:44:23;33.03;;;4.82;;
18610;SDS011;9435;52.122;5.502;2022-12-24T12:47:21;36.15;;;5.35;;
18610;SDS011;9435;52.122;5.502;2022-12-24T12:50:16;26.45;;;4.22;;
18610;SDS011;9435;52.122;5.502;2022-12-24T12:52:57;31.42;;;4.88;;
18610;SDS011;9435;52.122;5.502;2022-12-24T12:55:42;34.25;;;5.03;;
18610;SDS011;9435;52.122;5.502;2022-12-24T12:58:18;29.55;;;4.35;;
18610;SDS011;9435;52.122;5.502;2022-12-24T13:00:50;33.58;;;4.47;;
18610;SDS011;9435;52.122;5.502;2022-12-24T13:03:29;28.00;;;4.30;;
18610;SDS011;9435;52.122;5.502;2022-12-24T13:09:25;35.58;;;4.55;;
18610;SDS011;9435;52.122;5.502;2022-12-24T13:12:20;26.00;;;4.22;;
18610;SDS011;9435;52.122;5.502;2022-12-24T13:14:58;29.80;;;4.68;;
18610;SDS011;9435;52.122;5.502;2022-12-24T13:17:52;22.73;;;4.30;;
18610;SDS011;9435;52.122;5.502;2022-12-24T13:20:45;33.72;;;4.82;;
18610;SDS011;9435;52.122;5.502;2022-12-24T13:23:14;32.08;;;4.93;;
18610;SDS011;9435;52.122;5.502;2022-12-24T13:25:45;27.30;;;4.70;;
18610;SDS011;9435;52.122;5.502;2022-12-24T13:28:15;29.58;;;4.50;;
18610;SDS011;9435;52.122;5.502;2022-12-24T13:31:21;28.02;;;4.50;;
18610;SDS011;9435;52.122;5.502;2022-12-24T13:33:56;32.10;;;4.95;;
18610;SDS011;9435;52.122;5.502;2022-12-24T13:39:27;30.92;;;4.40;;
18610;SDS011;9435;52.122;5.502;2022-12-24T13:42:25;34.88;;;5.03;;
18610;SDS011;9435;52.122;5.502;2022-12-24T13:48:17;31.75;;;6.28;;
18610;SDS011;9435;52.122;5.502;2022-12-24T13:50:53;27.90;;;4.97;;
18610;SDS011;9435;52.122;5.502;2022-12-24T13:53:22;32.08;;;5.15;;
18610;SDS011;9435;52.122;5.502;2022-12-24T13:55:54;35.47;;;5.22;;
18610;SDS011;9435;52.122;5.502;2022-12-24T13:58:24;29.65;;;4.93;;
18610;SDS011;9435;52.122;5.502;2022-12-24T14:00:53;29.75;;;4.45;;
18610;SDS011;9435;52.122;5.502;2022-12-24T14:03:27;27.58;;;4.90;;
18610;SDS011;9435;52.122;5.502;2022-12-24T14:05:57;25.52;;;4.78;;
18610;SDS011;9435;52.122;5.502;2022-12-24T14:08:34;28.23;;;5.53;;
18610;SDS011;9435;52.122;5.502;2022-12-24T14:11:06;27.63;;;4.78;;
18610;SDS011;9435;52.122;5.502;2022-12-24T14:13:52;35.00;;;5.90;;
18610;SDS011;9435;52.122;5.502;2022-12-24T14:16:41;30.05;;;4.32;;
18610;SDS011;9435;52.122;5.502;2022-12-24T14:19:11;29.45;;;4.22;;
18610;SDS011;9435;52.122;5.502;2022-12-24T14:21:41;28.50;;;4.35;;
18610;SDS011;9435;52.122;5.502;2022-12-24T14:24:12;28.92;;;4.40;;
18610;SDS011;9435;52.122;5.502;2022-12-24T14:26:43;29.77;;;4.57;;
18610;SDS011;9435;52.122;5.502;2022-12-24T14:29:14;34.38;;;4.10;;
18610;SDS011;9435;52.122;5.502;2022-12-24T14:31:51;37.08;;;4.72;;
18610;SDS011;9435;52.122;5.502;2022-12-24T14:34:18;36.25;;;4.85;;
18610;SDS011;9435;52.122;5.502;2022-12-24T14:36:46;37.72;;;5.38;;
18610;SDS011;9435;52.122;5.502;2022-12-24T14:39:19;27.58;;;3.88;;
18610;SDS011;9435;52.122;5.502;2022-12-24T14:41:51;31.75;;;4.97;;
18610;SDS011;9435;52.122;5.502;2022-12-24T14:44:27;31.63;;;4.85;;
18610;SDS011;9435;52.122;5.502;2022-12-24T14:47:05;28.48;;;4.53;;
18610;SDS011;9435;52.122;5.502;2022-12-24T14:49:50;37.60;;;4.88;;
18610;SDS011;9435;52.122;5.502;2022-12-24T14:52:29;31.75;;;5.35;;
18610;SDS011;9435;52.122;5.502;2022-12-24T14:58:15;35.00;;;6.82;;
18610;SDS011;9435;52.122;5.502;2022-12-24T15:00:49;37.58;;;7.28;;
18610;SDS011;9435;52.122;5.502;2022-12-24T15:03:20;31.27;;;7.10;;
18610;SDS011;9435;52.122;5.502;2022-12-24T15:05:49;37.10;;;7.65;;
18610;SDS011;9435;52.122;5.502;2022-12-24T15:08:20;38.60;;;5.40;;
18610;SDS011;9435;52.122;5.502;2022-12-24T15:10:53;30.58;;;5.30;;
18610;SDS011;9435;52.122;5.502;2022-12-24T15:13:25;31.42;;;4.72;;
18610;SDS011;9435;52.122;5.502;2022-12-24T15:15:58;32.00;;;5.82;;
18610;SDS011;9435;52.122;5.502;2022-12-24T15:18:28;32.10;;;4.88;;
18610;SDS011;9435;52.122;5.502;2022-12-24T15:20:58;34.58;;;5.15;;
18610;SDS011;9435;52.122;5.502;2022-12-24T15:23:28;35.17;;;4.32;;
18610;SDS011;9435;52.122;5.502;2022-12-24T15:26:06;27.50;;;3.70;;